North Fond du Lac, Wisconsin
Current Conditions -  °F | °C
As of 3:53 PM on Tuesday 25 Nov 2014 (Local Time) from KFLD Reporting Station
Overcast Overcast  
Wind Chill: 12°   Ceiling: 1500
Heat Index: 21°   Visibility: 10mi
Dew Point: 15°   Wind: 7mph
Humidity: 78%   Direction: 220°SW
Pressure: 30.1"   Gusts: NA
Location:  43.7898°N, 88.5291°W
Report Text: KFLD 252153Z AUTO 22006KT 10SM OVC015 M06/M09 A3010 RMK AO2 SLP207 T10611094
Loading
Personal Weather Stations






























Interactive Weather Map New forecast layout! Learn more

10-Day Weather Forecast

Advertisements
Track Severe Weather on mobile